createdAt,value
2023-08-22T00:00:39.361Z,10.70
2023-08-22T00:03:07.383Z,11.32
2023-08-22T00:05:36.210Z,10.85
2023-08-22T00:08:06.358Z,10.77
2023-08-22T00:10:35.057Z,11.07
2023-08-22T00:13:05.216Z,10.65
2023-08-22T00:15:33.294Z,10.70
2023-08-22T00:18:01.320Z,10.35
2023-08-22T00:20:29.420Z,10.20
2023-08-22T00:22:57.303Z,10.98
2023-08-22T00:25:25.196Z,10.50
2023-08-22T00:27:53.160Z,10.93
2023-08-22T00:30:21.443Z,11.23
2023-08-22T00:32:50.188Z,10.85
2023-08-22T00:35:18.324Z,10.98
2023-08-22T00:37:46.278Z,10.93
2023-08-22T00:40:14.302Z,10.77
2023-08-22T00:42:42.323Z,10.57
2023-08-22T00:45:12.558Z,10.73
2023-08-22T00:47:42.112Z,11.75
2023-08-22T00:50:11.979Z,11.27
2023-08-22T00:52:40.152Z,10.88
2023-08-22T00:55:09.677Z,10.07
2023-08-22T00:57:38.713Z,10.73
2023-08-22T01:00:11.255Z,10.90
2023-08-22T01:02:41.589Z,10.40
2023-08-22T01:05:11.046Z,10.70
2023-08-22T01:07:47.433Z,9.88
2023-08-22T01:10:21.148Z,11.32
2023-08-22T01:12:54.742Z,11.02
2023-08-22T01:15:26.822Z,10.85
2023-08-22T01:17:58.534Z,10.98
2023-08-22T01:20:29.101Z,10.57
2023-08-22T01:22:59.428Z,10.68
2023-08-22T01:25:29.276Z,11.30
2023-08-22T01:28:09.899Z,11.75
2023-08-22T01:30:45.121Z,11.50
2023-08-22T01:33:18.617Z,10.73
2023-08-22T01:35:51.044Z,11.45
2023-08-22T01:38:21.959Z,11.05
2023-08-22T01:40:51.052Z,11.20
2023-08-22T01:43:19.666Z,11.80
2023-08-22T01:45:47.856Z,11.25
2023-08-22T01:48:15.898Z,11.05
2023-08-22T01:50:44.534Z,10.98
2023-08-22T01:53:12.617Z,11.55
2023-08-22T01:55:42.033Z,11.70
2023-08-22T01:58:12.434Z,11.32
2023-08-22T02:00:40.817Z,10.93
2023-08-22T02:03:09.429Z,11.35
2023-08-22T02:05:37.526Z,11.43
2023-08-22T02:08:06.291Z,11.05
2023-08-22T02:10:34.277Z,11.30
2023-08-22T02:13:03.546Z,11.43
2023-08-22T02:15:32.384Z,10.88
2023-08-22T02:18:00.481Z,10.55
2023-08-22T02:20:28.488Z,10.52
2023-08-22T02:22:56.935Z,11.07
2023-08-22T02:25:26.025Z,10.48
2023-08-22T02:27:53.969Z,10.23
2023-08-22T02:30:23.411Z,10.82
2023-08-22T02:32:51.459Z,10.80
2023-08-22T02:35:20.792Z,10.15
2023-08-22T02:37:49.021Z,10.38
2023-08-22T02:40:17.050Z,10.48
2023-08-22T02:42:45.758Z,10.15
2023-08-22T02:45:13.682Z,10.07
2023-08-22T02:47:44.004Z,9.88
2023-08-22T02:50:12.339Z,9.88
2023-08-22T02:52:40.260Z,10.07
2023-08-22T02:55:09.029Z,9.60
2023-08-22T02:57:37.018Z,9.80
2023-08-22T03:00:07.851Z,9.57
2023-08-22T03:02:35.932Z,8.60
2023-08-22T03:05:08.057Z,9.32
2023-08-22T03:08:08.847Z,8.73
2023-08-22T03:10:37.209Z,9.38
2023-08-22T03:13:05.515Z,8.52
2023-08-22T03:15:34.619Z,9.20
2023-08-22T03:18:03.574Z,8.98
2023-08-22T03:20:33.505Z,9.30
2023-08-22T03:23:03.098Z,8.98
2023-08-22T03:25:31.039Z,9.15
2023-08-22T03:28:00.490Z,8.30
2023-08-22T03:30:28.741Z,8.45
2023-08-22T03:32:56.764Z,8.98
2023-08-22T03:35:24.804Z,8.38
2023-08-22T03:37:54.114Z,9.13
2023-08-22T03:40:22.148Z,8.75
2023-08-22T03:42:50.826Z,8.45
2023-08-22T03:45:19.521Z,8.57
2023-08-22T03:47:47.879Z,8.68
2023-08-22T03:50:16.664Z,9.25
2023-08-22T03:52:44.573Z,8.43
2023-08-22T03:55:14.314Z,8.57
2023-08-22T03:57:43.216Z,8.63
2023-08-22T04:00:12.867Z,8.88
2023-08-22T04:02:47.348Z,9.00
2023-08-22T04:05:15.534Z,8.43
2023-08-22T04:07:43.627Z,9.30
2023-08-22T04:10:11.978Z,8.85
2023-08-22T04:12:41.308Z,8.38
2023-08-22T04:15:11.104Z,8.93
2023-08-22T04:17:42.712Z,9.25
2023-08-22T04:20:12.151Z,7.97
2023-08-22T04:22:42.293Z,8.75
2023-08-22T04:25:11.594Z,8.75
2023-08-22T04:27:42.103Z,8.90
2023-08-22T04:30:13.238Z,8.30
2023-08-22T04:32:41.621Z,9.23
2023-08-22T04:35:10.477Z,8.82
2023-08-22T04:37:41.929Z,9.10
2023-08-22T04:40:11.847Z,9.60
2023-08-22T04:42:46.348Z,8.90
2023-08-22T04:45:16.422Z,9.25
2023-08-22T04:47:44.747Z,8.73
2023-08-22T04:50:14.004Z,8.98
2023-08-22T04:52:41.968Z,8.50
2023-08-22T04:55:10.547Z,8.77
2023-08-22T04:57:38.516Z,8.57
2023-08-22T05:00:10.790Z,8.63
2023-08-22T05:02:38.860Z,8.30
2023-08-22T05:05:08.452Z,8.00
2023-08-22T05:07:36.471Z,8.43
2023-08-22T05:10:04.779Z,8.65
2023-08-22T05:12:32.726Z,8.52
2023-08-22T05:15:00.717Z,8.13
2023-08-22T05:17:31.470Z,7.50
2023-08-22T05:19:59.536Z,7.65
2023-08-22T05:22:27.445Z,8.40
2023-08-22T05:24:55.512Z,7.70
2023-08-22T05:27:23.411Z,7.65
2023-08-22T05:29:51.446Z,7.50
2023-08-22T05:32:19.420Z,7.80
2023-08-22T05:34:48.957Z,7.63
2023-08-22T05:37:17.524Z,7.32
2023-08-22T05:39:45.970Z,7.28
2023-08-22T05:42:13.904Z,7.47
2023-08-22T05:44:41.902Z,7.90
2023-08-22T05:47:11.789Z,6.88
2023-08-22T05:49:44.297Z,7.07
2023-08-22T05:52:13.660Z,6.65
2023-08-22T05:54:42.780Z,7.30
2023-08-22T05:57:11.204Z,7.15
2023-08-22T05:59:39.380Z,7.28
2023-08-22T06:02:08.568Z,7.57
2023-08-22T06:04:36.591Z,6.90
2023-08-22T06:07:04.587Z,7.07
2023-08-22T06:09:34.201Z,6.78
2023-08-22T06:12:02.201Z,6.10
2023-08-22T06:14:31.185Z,6.75
2023-08-22T06:16:59.682Z,6.15
2023-08-22T06:19:28.371Z,6.03
2023-08-22T06:21:56.714Z,6.63
2023-08-22T06:24:24.630Z,6.57
2023-08-22T06:26:55.049Z,6.38
2023-08-22T06:29:23.040Z,6.50
2023-08-22T06:31:51.011Z,6.72
2023-08-22T06:34:19.175Z,6.60
2023-08-22T06:36:47.290Z,6.68
2023-08-22T06:39:15.237Z,6.68
2023-08-22T06:41:43.228Z,6.43
2023-08-22T06:44:14.290Z,6.63
2023-08-22T06:46:42.495Z,6.45
2023-08-22T06:49:10.419Z,6.25
2023-08-22T06:51:38.404Z,6.50
2023-08-22T06:54:06.342Z,6.50
2023-08-22T06:56:34.277Z,6.70
2023-08-22T06:59:02.594Z,6.68
2023-08-22T07:01:31.912Z,6.70
2023-08-22T07:04:10.895Z,5.95
2023-08-22T07:06:43.761Z,7.57
2023-08-22T07:09:11.795Z,6.80
2023-08-22T07:11:39.746Z,6.95
2023-08-22T07:14:08.060Z,7.10
2023-08-22T07:16:37.390Z,7.20
2023-08-22T07:19:05.423Z,6.63
2023-08-22T07:21:33.433Z,6.65
2023-08-22T07:24:01.382Z,7.25
2023-08-22T07:26:29.379Z,7.18
2023-08-22T07:28:57.359Z,6.97
2023-08-22T07:31:26.077Z,6.72
2023-08-22T07:33:55.958Z,7.72
2023-08-22T07:36:24.021Z,7.18
2023-08-22T07:38:51.920Z,7.15
2023-08-22T07:41:19.837Z,7.63
2023-08-22T07:43:47.778Z,7.82
2023-08-22T07:46:15.721Z,8.02
2023-08-22T07:48:43.692Z,6.75
2023-08-22T07:51:13.064Z,7.95
2023-08-22T07:53:41.034Z,7.32
2023-08-22T07:56:09.162Z,7.97
2023-08-22T07:58:37.109Z,7.80
2023-08-22T08:01:07.558Z,8.10
2023-08-22T08:03:37.290Z,7.78
2023-08-22T08:06:05.409Z,7.50
2023-08-22T08:08:35.172Z,7.50
2023-08-22T08:11:03.482Z,8.13
2023-08-22T08:13:32.673Z,7.57
2023-08-22T08:16:06.832Z,7.10
2023-08-22T08:18:36.376Z,7.53
2023-08-22T08:21:04.816Z,8.38
2023-08-22T08:23:34.430Z,7.60
2023-08-22T08:26:04.655Z,7.70
2023-08-22T08:28:34.325Z,7.45
2023-08-22T08:31:02.334Z,7.28
2023-08-22T08:33:30.361Z,7.07
2023-08-22T08:35:58.314Z,6.80
2023-08-22T08:38:26.294Z,6.95
2023-08-22T08:41:00.649Z,7.82
2023-08-22T08:43:28.702Z,7.38
2023-08-22T08:45:57.765Z,7.25
2023-08-22T08:48:26.149Z,8.18
2023-08-22T08:50:54.430Z,7.45
2023-08-22T08:53:22.513Z,7.05
2023-08-22T08:55:50.639Z,7.43
2023-08-22T08:58:19.992Z,8.05
2023-08-22T09:00:48.733Z,7.40
2023-08-22T09:03:16.864Z,7.40
2023-08-22T09:05:44.834Z,7.00
2023-08-22T09:08:21.315Z,7.25
2023-08-22T09:10:53.608Z,7.00
2023-08-22T09:13:50.377Z,7.32
2023-08-22T09:16:19.342Z,7.05
2023-08-22T09:18:47.317Z,7.05
2023-08-22T09:21:15.742Z,6.78
2023-08-22T09:23:44.122Z,7.57
2023-08-22T09:26:12.675Z,6.78
2023-08-22T09:28:42.781Z,7.38
2023-08-22T09:31:10.909Z,6.57
2023-08-22T09:33:46.634Z,6.90
2023-08-22T09:36:14.623Z,6.85
2023-08-22T09:38:53.560Z,7.07
2023-08-22T09:41:26.862Z,7.18
2023-08-22T09:43:59.940Z,7.32
2023-08-22T09:46:28.941Z,6.90
2023-08-22T09:48:58.375Z,7.45
2023-08-22T09:51:27.311Z,6.93
2023-08-22T09:54:00.611Z,6.53
2023-08-22T09:56:29.035Z,6.53
2023-08-22T09:58:58.672Z,6.60
2023-08-22T11:45:48.345Z,7.68
2023-08-22T11:48:17.717Z,7.32
2023-08-22T11:50:46.321Z,7.20
2023-08-22T11:53:16.988Z,7.10
2023-08-22T11:55:49.516Z,7.57
2023-08-22T11:58:18.403Z,7.35
2023-08-22T12:00:47.914Z,6.97
2023-08-22T12:03:16.099Z,6.50
2023-08-22T12:05:49.346Z,6.43
2023-08-22T12:08:19.126Z,7.18
2023-08-22T12:10:48.480Z,6.88
2023-08-22T12:13:17.955Z,7.28
2023-08-22T12:15:47.835Z,7.70
2023-08-22T12:18:16.626Z,7.15
2023-08-22T12:20:45.570Z,7.57
2023-08-22T12:23:14.637Z,6.43
2023-08-22T12:25:43.981Z,6.88
2023-08-22T12:28:12.604Z,6.30
2023-08-22T12:30:42.178Z,6.70
2023-08-22T12:33:11.578Z,6.47
2023-08-22T12:35:41.070Z,6.57
2023-08-22T12:38:09.669Z,6.55
2023-08-22T12:40:37.601Z,6.70
2023-08-22T12:43:05.861Z,6.43
2023-08-22T12:45:33.797Z,6.88
2023-08-22T12:48:01.753Z,6.47
2023-08-22T12:50:33.026Z,6.90
2023-08-22T12:53:01.626Z,6.50
2023-08-22T12:55:29.621Z,6.95
2023-08-22T12:57:57.791Z,7.32
2023-08-22T13:00:25.746Z,7.15
2023-08-22T13:02:54.100Z,7.05
2023-08-22T13:05:22.330Z,6.97
2023-08-22T13:07:51.637Z,7.03
2023-08-22T13:10:19.641Z,7.20
2023-08-22T13:12:47.917Z,7.20
2023-08-22T13:15:16.192Z,7.22
2023-08-22T13:17:44.448Z,7.28
2023-08-22T13:20:13.028Z,7.53
2023-08-22T13:22:40.956Z,7.13
2023-08-22T13:25:12.379Z,7.03
2023-08-22T13:27:41.130Z,7.18
2023-08-22T13:30:10.147Z,6.72
2023-08-22T13:32:38.482Z,7.85
2023-08-22T13:35:09.987Z,7.15
2023-08-22T13:37:37.951Z,7.05
2023-08-22T13:40:07.031Z,6.72
2023-08-22T13:42:36.496Z,7.40
2023-08-22T13:45:05.719Z,7.72
2023-08-22T13:47:33.731Z,6.95
2023-08-22T13:50:01.768Z,6.93
2023-08-22T13:52:29.704Z,7.45
2023-08-22T13:54:57.868Z,7.07
2023-08-22T13:57:27.944Z,7.70
2023-08-22T13:59:57.305Z,7.35
2023-08-22T14:02:25.378Z,6.82
2023-08-22T14:04:53.323Z,6.90
2023-08-22T14:07:21.265Z,7.15
2023-08-22T14:09:49.239Z,7.15
2023-08-22T14:12:17.174Z,7.28
2023-08-22T14:14:45.080Z,8.05
2023-08-22T14:17:14.318Z,7.60
2023-08-22T14:19:42.278Z,7.43
2023-08-22T14:22:10.236Z,7.60
2023-08-22T14:24:38.179Z,7.57
2023-08-22T14:27:06.224Z,7.85
2023-08-22T14:29:34.288Z,7.70
2023-08-22T14:32:02.231Z,6.80
2023-08-22T14:34:31.591Z,7.20
2023-08-22T14:37:08.971Z,6.95
2023-08-22T14:39:46.055Z,7.15
2023-08-22T14:42:14.087Z,6.90
2023-08-22T14:44:42.038Z,7.43
2023-08-22T14:47:10.651Z,6.85
2023-08-22T14:49:40.054Z,7.05
2023-08-22T14:52:08.494Z,7.55
2023-08-22T14:54:36.528Z,7.15
2023-08-22T14:57:04.584Z,7.60
2023-08-22T14:59:32.950Z,7.57
2023-08-22T15:02:00.926Z,7.72
2023-08-22T15:04:29.139Z,7.85
2023-08-22T15:06:58.455Z,7.10
2023-08-22T15:09:26.473Z,7.20
2023-08-22T15:11:54.360Z,7.40
2023-08-22T15:14:22.320Z,7.38
2023-08-22T15:16:50.266Z,7.22
2023-08-22T15:19:18.229Z,7.38
2023-08-22T15:21:46.174Z,7.90
2023-08-22T15:24:15.453Z,7.40
2023-08-22T15:26:45.041Z,7.40
2023-08-22T15:29:13.609Z,6.85
2023-08-22T15:31:43.707Z,7.47
2023-08-22T15:34:11.865Z,7.60
2023-08-22T15:36:40.325Z,7.53
2023-08-22T15:39:08.258Z,7.03
2023-08-22T15:41:38.502Z,7.05
2023-08-22T15:44:06.482Z,6.90
2023-08-22T15:46:34.470Z,7.38
2023-08-22T15:49:02.455Z,6.95
2023-08-22T15:51:30.349Z,6.75
2023-08-22T15:53:58.297Z,7.40
2023-08-22T15:56:28.833Z,7.68
2023-08-22T15:58:58.596Z,7.25
2023-08-22T16:01:26.598Z,7.13
2023-08-22T16:03:54.648Z,6.90
2023-08-22T16:06:22.722Z,6.93
2023-08-22T16:08:50.776Z,7.43
2023-08-22T16:11:18.796Z,6.25
2023-08-22T16:13:46.776Z,6.97
2023-08-22T16:16:16.039Z,6.57
2023-08-22T16:18:43.956Z,6.60
2023-08-22T16:21:12.025Z,6.95
2023-08-22T16:23:40.050Z,6.75
2023-08-22T16:26:08.026Z,6.50
2023-08-22T16:28:35.982Z,7.03
2023-08-22T16:31:03.973Z,6.72
2023-08-22T16:33:33.411Z,7.32
2023-08-22T16:36:01.615Z,6.80
2023-08-22T16:38:29.919Z,7.40
2023-08-22T16:40:58.160Z,6.55
2023-08-22T16:43:26.514Z,7.18
2023-08-22T16:45:55.401Z,7.35
2023-08-22T16:48:23.531Z,6.47
2023-08-22T16:50:53.228Z,6.82
2023-08-22T16:53:21.592Z,6.80
2023-08-22T16:55:51.639Z,6.55
2023-08-22T16:58:19.937Z,6.53
2023-08-22T17:00:48.869Z,7.13
2023-08-22T17:03:17.131Z,6.25
2023-08-22T17:05:46.436Z,6.75
2023-08-22T17:08:16.363Z,6.30
2023-08-22T17:10:44.368Z,7.15
2023-08-22T17:13:12.379Z,7.90
2023-08-22T17:15:40.467Z,7.15
2023-08-22T17:18:08.635Z,6.93
2023-08-22T17:20:36.638Z,6.65
2023-08-22T17:23:04.705Z,6.22
2023-08-22T17:25:34.023Z,5.90
2023-08-22T17:28:02.051Z,5.05
2023-08-22T17:30:30.055Z,5.00
2023-08-22T17:32:58.040Z,5.55
2023-08-22T17:35:25.974Z,4.72
2023-08-22T17:37:53.884Z,6.40
2023-08-22T17:40:21.807Z,5.97
2023-08-22T17:42:51.415Z,4.65
2023-08-22T17:45:19.431Z,7.63
2023-08-22T17:47:47.697Z,6.50
2023-08-22T17:50:15.996Z,4.80
2023-08-22T17:52:43.922Z,4.65
2023-08-22T17:55:12.447Z,4.50
2023-08-22T17:57:40.388Z,4.10
2023-08-22T18:00:12.431Z,4.90
2023-08-22T18:02:40.434Z,4.97
2023-08-22T18:05:08.835Z,4.43
2023-08-22T18:07:36.792Z,4.47
2023-08-22T18:10:05.317Z,4.45
2023-08-22T18:12:33.257Z,4.60
2023-08-22T18:15:01.186Z,4.22
2023-08-22T18:17:30.636Z,4.97
2023-08-22T18:19:58.714Z,4.72
2023-08-22T18:22:26.624Z,4.47
2023-08-22T18:24:54.598Z,5.18
2023-08-22T18:27:22.508Z,4.57
2023-08-22T18:29:50.403Z,4.88
2023-08-22T18:32:18.332Z,5.63
2023-08-22T18:34:47.608Z,4.82
2023-08-22T18:37:15.561Z,4.88
2023-08-22T18:39:43.665Z,5.13
2023-08-22T18:42:13.235Z,4.72
2023-08-22T18:44:41.145Z,4.82
2023-08-22T18:47:09.249Z,4.75
2023-08-22T18:49:37.147Z,4.47
2023-08-22T18:52:07.832Z,5.10
2023-08-22T18:54:35.817Z,5.03
2023-08-22T18:57:03.832Z,5.07
2023-08-22T18:59:31.772Z,5.15
2023-08-22T19:01:59.706Z,4.85
2023-08-22T19:04:27.639Z,4.93
2023-08-22T19:06:55.565Z,5.28
2023-08-22T19:09:24.906Z,5.03
2023-08-22T19:11:52.841Z,4.93
2023-08-22T19:14:21.099Z,5.43
2023-08-22T19:16:49.098Z,6.07
2023-08-22T19:19:17.075Z,5.25
2023-08-22T19:21:45.059Z,5.55
2023-08-22T19:24:12.983Z,4.95
2023-08-22T19:26:43.299Z,5.70
2023-08-22T19:29:11.287Z,4.97
2023-08-22T19:31:39.578Z,4.82
2023-08-22T19:34:07.546Z,5.50
2023-08-22T19:36:35.628Z,5.05
2023-08-22T19:39:04.762Z,5.40
2023-08-22T19:41:32.924Z,5.50
2023-08-22T19:44:02.201Z,5.28
2023-08-22T19:46:30.137Z,5.60
2023-08-22T19:48:58.407Z,5.40
2023-08-22T19:51:26.626Z,6.40
2023-08-22T19:53:57.817Z,5.90
2023-08-22T19:56:25.794Z,5.95
2023-08-22T19:58:53.969Z,5.82
2023-08-22T20:01:24.467Z,5.65
2023-08-22T20:03:52.492Z,5.28
2023-08-22T20:06:20.435Z,5.13
2023-08-22T20:08:48.494Z,5.93
2023-08-22T20:11:16.435Z,6.28
2023-08-22T20:13:45.102Z,5.60
2023-08-22T20:16:13.089Z,6.35
2023-08-22T20:18:42.453Z,5.65
2023-08-22T20:21:10.381Z,5.35
2023-08-22T20:23:38.320Z,5.53
2023-08-22T20:26:06.225Z,5.53
2023-08-22T20:28:37.204Z,5.63
2023-08-22T20:31:11.405Z,5.90
2023-08-22T20:33:40.016Z,6.20
2023-08-22T20:36:09.658Z,5.93
2023-08-22T20:38:37.862Z,5.28
2023-08-22T20:41:05.797Z,5.90
2023-08-22T20:43:33.755Z,5.72
2023-08-22T20:46:03.157Z,6.18
2023-08-22T20:48:31.349Z,6.07
2023-08-22T20:50:59.306Z,6.28
2023-08-22T20:53:28.548Z,5.95
2023-08-22T20:55:56.466Z,6.18
2023-08-22T20:58:24.419Z,5.85
2023-08-22T21:00:53.115Z,6.50
2023-08-22T21:03:21.269Z,5.53
2023-08-22T21:05:49.895Z,5.88
2023-08-22T21:08:19.258Z,6.13
2023-08-22T21:10:48.695Z,6.18
2023-08-22T21:13:16.619Z,6.32
2023-08-22T21:15:45.094Z,6.55
2023-08-22T21:18:13.034Z,6.13
2023-08-22T21:20:41.051Z,6.45
2023-08-22T21:23:10.833Z,6.43
2023-08-22T21:25:38.873Z,6.35
2023-08-22T21:28:08.300Z,6.75
2023-08-22T21:30:36.248Z,5.90
2023-08-22T21:33:04.569Z,6.53
2023-08-22T21:35:32.532Z,6.53
2023-08-22T21:38:00.466Z,6.38
2023-08-22T21:40:28.407Z,7.78
2023-08-22T21:42:56.485Z,7.07
2023-08-22T21:45:25.839Z,6.75
2023-08-22T21:47:53.821Z,6.43
2023-08-22T21:50:21.860Z,6.57
2023-08-22T21:52:50.060Z,7.03
2023-08-22T21:55:18.303Z,6.78
2023-08-22T21:57:46.597Z,6.53
2023-08-22T22:00:15.860Z,6.85
2023-08-22T22:02:45.338Z,6.85
2023-08-22T22:05:13.664Z,7.25
2023-08-22T22:07:41.592Z,6.50
2023-08-22T22:10:10.572Z,6.70
2023-08-22T22:12:38.665Z,6.68
2023-08-22T22:15:07.992Z,7.15
2023-08-22T22:17:36.116Z,6.45
2023-08-22T22:20:06.618Z,6.72
2023-08-22T22:22:34.623Z,6.90
2023-08-22T22:25:02.587Z,7.20
2023-08-22T22:27:30.554Z,7.30
2023-08-22T22:29:58.593Z,7.30
2023-08-22T22:32:26.533Z,7.35
2023-08-22T22:34:54.435Z,6.90
2023-08-22T22:37:24.440Z,7.28
2023-08-22T22:39:52.326Z,8.00
2023-08-22T22:42:20.246Z,7.03
2023-08-22T22:44:48.184Z,7.10
2023-08-22T22:47:16.102Z,7.45
2023-08-22T22:49:44.036Z,6.88
2023-08-22T22:52:12.193Z,7.32
2023-08-22T22:54:41.581Z,7.53
2023-08-22T22:57:09.494Z,7.50
2023-08-22T22:59:37.406Z,7.60
2023-08-22T23:02:05.485Z,7.32
2023-08-22T23:04:33.501Z,6.75
2023-08-22T23:07:01.422Z,7.32
2023-08-22T23:09:29.324Z,7.05
2023-08-22T23:12:11.698Z,6.95
2023-08-22T23:14:41.060Z,7.13
2023-08-22T23:17:10.064Z,7.13
2023-08-22T23:19:37.958Z,8.27
2023-08-22T23:22:06.045Z,8.25
2023-08-22T23:24:33.961Z,6.97
2023-08-22T23:27:03.300Z,7.43
2023-08-22T23:29:31.228Z,7.38
2023-08-22T23:31:59.654Z,7.68
2023-08-22T23:34:29.290Z,7.53
2023-08-22T23:36:57.235Z,7.80
2023-08-22T23:39:25.176Z,7.60
2023-08-22T23:41:53.147Z,7.45
2023-08-22T23:44:22.369Z,7.55
2023-08-22T23:46:50.413Z,7.68
2023-08-22T23:49:18.350Z,7.32
2023-08-22T23:51:46.267Z,7.55
2023-08-22T23:54:14.192Z,8.32
2023-08-22T23:56:42.103Z,8.38
2023-08-22T23:59:10.032Z,8.05
